AirNav   ATP
 
 409 users online  

9PA8 Thomas Jefferson University Hospital Heliport
Philadelphia, Pennsylvania, USA

GOING TO PHILADELPHIA?


FAA INFORMATION EFFECTIVE 08 NOVEMBER 2018

Location

FAA Identifier: 9PA8
Lat/Long: 39-56-56.4060N / 075-09-30.6390W
39-56.940100N / 075-09.510650W
39.9490017 / -75.1585108
(estimated)
Elevation: 253 ft. / 77 m (estimated)
Variation: 11W (1985)
Time zone: UTC -5 (UTC -4 during Daylight Saving Time)
Zip code: 19107

Heliport Operations

Heliport use: Private use, MEDICAL USE.
Activation date: 09/1970
Control tower: no
ARTCC: NEW YORK CENTER
FSS: WILLIAMSPORT FLIGHT SERVICE STATION
Attendance: UNATNDD
Wind indicator: yes
Segmented circle: no

Heliport Communications

WX ASOS at PHL (6 nm SW): PHONE 215-492-9617
WX ASOS at PNE (10 nm NE): PHONE 215-677-0146
WX AWOS-3 at LOM (12 nm NW): 118.925 (215-646-1068)
WX ASOS at VAY (14 nm E): 119.325 (609-267-1176)
WX AWOS-3T at OQN (20 nm W): 121.4 ((610) 692-6190)

Nearby radio navigation aids

VOR radial/distance  VOR name  Freq  Var
OODr030/19.9WOODSTOWN VORTAC112.8010W
ARDr222/21.6YARDLEY VOR/DME108.2010W
MXEr094/23.6MODENA VORTAC113.2009W
PTWr141/24.7POTTSTOWN VORTAC116.5009W
GXUr274/26.1MC GUIRE VORTAC110.6012W
VCNr350/26.2CEDAR LAKE VOR/DME115.2010W
DQOr062/26.3DUPONT VORTAC114.0010W
RBVr253/34.0ROBBINSVILLE VORTAC113.8010W
CYNr293/34.4COYLE VORTAC113.4010W
ACYr328/40.0ATLANTIC CITY VORTAC108.6010W

 
NDB name  Hdg/Dist  Freq  Var  ID
AMBLER163/12.127512WING .. -. --.
RAINBOW009/31.936311WRNB .-. -. -...
LAKEHURST272/38.339611WNEL -. . .-..

Heliport Services

Airframe service: NONE
Powerplant service: NONE

Runway Information

Helipad H1

Dimensions: 40 x 40 ft. / 12 x 12 m
Surface: asphalt
Latitude: 39-56.940100N
Longitude: 075-09.510650W
Elevation: 253.0 ft.
Traffic pattern: leftleft

Heliport Ownership and Management from official FAA records

Ownership: Privately-owned
Owner: THOMAS JEFFERSON UNIV HOSP
11TH & WALNUT
PHILADELPHIA, PA 19107
Phone 215-955-6000
215-955-4444.
Manager: BRIAN SWEENEY
111 SOUTH 11TH STREET, SUITE 2210
PHILADELPHIA, PA 19107
Phone (215) 955-7937

Additional Remarks

FOR CD CTC PHILADELPHIA APCH AT 800-354-9884.

Instrument Procedures

There are no published instrument procedures at 9PA8.

Some nearby airports with instrument procedures:

KPHL - Philadelphia International Airport (6 nm SW)
KPNE - Northeast Philadelphia Airport (10 nm NE)
KLOM - Wings Field Airport (12 nm NW)
19N - Camden County Airport (14 nm SE)
KVAY - South Jersey Regional Airport (14 nm E)
17N - Cross Keys Airport (16 nm S)
N14 - Flying W Airport (16 nm E)
7N7 - Spitfire Aerodrome (17 nm SW)
N73 - Red Lion Airport (19 nm E)
KOQN - Brandywine Airport (20 nm W)
 
Loc | Ops | Rwys | IFR | FBO | Links
Com | Nav | Svcs | Stats | Notes


 
Area around 9PA8 (Thomas Jefferson University Hospital Heliport)
 
Road maps at: MapQuest Bing Google
 
Aerial photo
No photo
 
Sectional chart

 
Airport distance calculator
Flying to Thomas Jefferson University Hospital Heliport? Find the distance to fly.

From to 9PA8

Sunrise and sunset
Times for 16-Nov-2018
 Local
(UTC-5)
 Zulu
(UTC)
Morning civil twilight06:1911:19
Sunrise06:4811:48
Sunset16:4321:43
Evening civil twilight17:1222:12

Current date and time
Zulu (UTC)  16-Nov-2018 08:38:44
Local (UTC-5)  16-Nov-2018 03:38:44
 
METAR
KPHL 
6nm SW 
160754Z 03017G22KT 3SM -RA BR BKN006 OVC012 03/03 A2949 RMK AO2 DZE38RAB38 SLP986 P0001 T00330033 $
KPNE 
10nm NE 
160811Z AUTO 04016G21KT 4SM BR BKN007 OVC011 04/03 A2950 RMK AO2 P0001 T00440028 $
KLOM 
12nm NW 
160815Z AUTO 05007KT 3SM OVC006 02/02 A2949 RMK AO1
KVAY 
15nm E 
ASOS 119.325 609-267-1176
160823Z AUTO 36009KT 3SM -RA BR OVC004 04/04 A2945 RMK AO2 P0002 T00440044 $
KOQN 
20nm W 
160815Z AUTO 03008G16KT 4SM DZ OVC006 03/02 A2947 RMK AO2
TAF
KPHL 
6nm SW 
160704Z 1607/1712 02014G25KT 4SM -RADZ BR BKN006 OVC012 TEMPO 1607/1609 2SM BR SCT006 OVC012 FM160900 35014G22KT 4SM -SHRA BR OVC006 FM161100 32020G30KT P6SM SCT008 BKN035 FM161400 29016G26KT P6SM BKN045 FM161900 28014G22KT P6SM SCT045 FM162300 27010KT P6SM SKC
KPNE 
10nm NE 
160532Z 1606/1706 03014G22KT 2SM -RADZ BR BKN006 OVC012 TEMPO 1606/1609 4SM BR SCT006 OVC012 FM160900 36014G22KT 4SM -SHRA BR OVC006 FM161100 32020G30KT P6SM SCT008 BKN035 FM161400 30016G26KT P6SM BKN045 FM161900 28012G22KT P6SM SCT045 FM162300 27008KT P6SM SKC
NOTAMs
Click for the latest NOTAMs
NOTAMs are issued by the DoD/FAA and will open in a separate window not controlled by AirNav.

 

 
 

Would you like to see your business listed on this page?

 If your business provides an interesting product or service to pilots, flight crews, aircraft, or users of the Thomas Jefferson University Hospital Heliport, you should consider listing it here.  To start the listing process, click on the button below
 
Add a business
 

Other Pages about Thomas Jefferson University Hospital Heliport

Update a link
 
Copyright © AirNav, LLC. All rights reserved. Privacy Policy  Contact